createdAt,value
2023-03-28T00:04:37.679Z,3.47
2023-03-28T00:14:39.948Z,3.47
2023-03-28T00:24:42.519Z,3.44
2023-03-28T00:34:44.759Z,3.33
2023-03-28T00:44:54.407Z,3.10
2023-03-28T00:54:58.889Z,2.92
2023-03-28T01:05:04.126Z,2.73
2023-03-28T01:15:07.477Z,2.61
2023-03-28T01:25:28.741Z,2.48
2023-03-28T01:35:59.448Z,2.37
2023-03-28T01:46:07.830Z,2.37
2023-03-28T01:56:38.940Z,2.35
2023-03-28T02:06:43.155Z,2.37
2023-03-28T02:16:50.485Z,2.35
2023-03-28T02:26:54.629Z,2.31
2023-03-28T02:37:13.078Z,2.32
2023-03-28T02:47:34.200Z,2.34
2023-03-28T02:57:49.545Z,2.29
2023-03-28T03:07:52.526Z,1.97
2023-03-28T03:17:54.886Z,1.57
2023-03-28T03:27:57.453Z,1.20
2023-03-28T03:38:01.218Z,0.86
2023-03-28T03:48:04.492Z,0.53
2023-03-28T03:58:07.458Z,0.28
2023-03-28T04:08:09.792Z,0.09
2023-03-28T04:18:12.327Z,-0.17
2023-03-28T04:28:16.544Z,-0.38
2023-03-28T04:38:20.944Z,-0.56
2023-03-28T04:48:24.739Z,-0.69
2023-03-28T04:58:27.165Z,-0.90
2023-03-28T05:08:30.180Z,-1.03
2023-03-28T05:18:32.688Z,-1.12
2023-03-28T05:28:35.032Z,-1.22
2023-03-28T05:38:37.870Z,-1.26
2023-03-28T05:48:40.292Z,-1.27
2023-03-28T05:58:43.083Z,-1.22
2023-03-28T06:08:45.858Z,-1.09
2023-03-28T06:18:48.850Z,-0.89
2023-03-28T06:28:51.922Z,-0.50
2023-03-28T06:38:55.269Z,-0.08
2023-03-28T06:48:58.691Z,0.38
2023-03-28T06:59:01.211Z,0.85
2023-03-28T07:09:06.160Z,1.37
2023-03-28T07:19:09.241Z,1.90
2023-03-28T07:29:11.669Z,2.42
2023-03-28T07:39:14.091Z,2.95
2023-03-28T07:49:16.744Z,3.44
2023-03-28T07:59:19.456Z,3.93
2023-03-28T08:09:22.162Z,4.34
2023-03-28T08:19:24.882Z,4.74
2023-03-28T08:29:27.522Z,5.18
2023-03-28T08:39:29.996Z,5.59
2023-03-28T08:49:39.120Z,5.92
2023-03-28T09:00:00.186Z,6.30
2023-03-28T09:10:07.855Z,6.78
2023-03-28T09:20:22.110Z,7.03
2023-03-28T09:30:30.248Z,7.40
2023-03-28T09:40:34.741Z,7.75
2023-03-28T09:50:37.358Z,7.95
2023-03-28T10:00:48.257Z,8.19
2023-03-28T10:11:07.585Z,8.95
2023-03-28T10:21:25.495Z,9.39
2023-03-28T10:31:30.999Z,9.12
2023-03-28T10:41:33.808Z,9.52
2023-03-28T10:51:38.941Z,9.62
2023-03-28T11:02:08.048Z,10.34
2023-03-28T11:12:32.318Z,10.96
2023-03-28T11:23:06.482Z,11.59
2023-03-28T11:33:23.621Z,11.69
2023-03-28T11:43:30.533Z,11.65
2023-03-28T11:53:43.334Z,11.68
2023-03-28T12:03:56.612Z,12.00
2023-03-28T12:14:12.120Z,12.37
2023-03-28T12:24:26.047Z,12.86
2023-03-28T12:34:35.432Z,13.39
2023-03-28T12:44:52.378Z,12.81
2023-03-28T12:54:57.734Z,13.08
2023-03-28T13:05:12.050Z,13.82
2023-03-28T13:15:20.308Z,14.12
2023-03-28T13:25:26.900Z,14.12
2023-03-28T13:35:41.465Z,14.46
2023-03-28T13:45:44.335Z,14.69
2023-03-28T13:55:47.432Z,14.60
2023-03-28T14:05:50.318Z,15.17
2023-03-28T14:15:54.221Z,15.71
2023-03-28T14:26:03.135Z,15.75
2023-03-28T14:36:06.551Z,15.59
2023-03-28T14:46:11.607Z,15.65
2023-03-28T14:56:22.578Z,15.57
2023-03-28T15:06:26.524Z,15.89
2023-03-28T15:16:30.695Z,16.17
2023-03-28T15:26:36.060Z,15.63
2023-03-28T15:36:49.097Z,14.75
2023-03-28T15:46:54.205Z,14.95
2023-03-28T15:56:58.071Z,15.36
2023-03-28T16:07:14.186Z,15.24
2023-03-28T16:17:17.390Z,14.84
2023-03-28T16:27:21.321Z,14.12
2023-03-28T16:37:23.953Z,13.71
2023-03-28T16:47:29.439Z,13.32
2023-03-28T16:57:32.319Z,12.84
2023-03-28T17:07:38.994Z,12.38
2023-03-28T17:17:41.770Z,11.88
2023-03-28T17:27:44.460Z,11.36
2023-03-28T17:37:47.549Z,10.95
2023-03-28T17:47:50.396Z,10.39
2023-03-28T17:57:52.997Z,9.87
2023-03-28T18:07:56.920Z,9.40
2023-03-28T18:18:02.284Z,9.08
2023-03-28T18:28:07.072Z,8.83
2023-03-28T18:38:09.759Z,8.65
2023-03-28T18:48:13.334Z,8.45
2023-03-28T18:58:16.573Z,8.28
2023-03-28T19:08:19.301Z,8.13
2023-03-28T19:18:22.251Z,8.10
2023-03-28T19:28:25.075Z,7.97
2023-03-28T19:38:28.368Z,7.90
2023-03-28T19:48:32.222Z,7.82
2023-03-28T19:58:35.373Z,7.69
2023-03-28T20:08:38.147Z,7.61
2023-03-28T20:18:41.298Z,7.54
2023-03-28T20:28:46.644Z,7.49
2023-03-28T20:38:49.364Z,7.47
2023-03-28T20:48:53.486Z,7.52
2023-03-28T20:58:58.600Z,7.59
2023-03-28T21:09:05.101Z,7.56
2023-03-28T21:19:07.783Z,7.53
2023-03-28T21:29:11.266Z,7.55
2023-03-28T21:39:14.106Z,7.59
2023-03-28T21:49:18.361Z,7.63
2023-03-28T21:59:20.892Z,7.67
2023-03-28T22:09:23.394Z,7.67
2023-03-28T22:19:30.293Z,7.62
2023-03-28T22:29:33.024Z,7.57
2023-03-28T22:39:36.304Z,7.51
2023-03-28T22:49:39.961Z,7.49
2023-03-28T22:59:42.472Z,7.58
2023-03-28T23:09:44.936Z,7.51
2023-03-28T23:19:49.499Z,7.49
2023-03-28T23:29:52.370Z,7.41
2023-03-28T23:39:55.811Z,7.36
2023-03-28T23:49:58.152Z,7.32
